createdAt,value
2019-06-20T00:00:35.599Z,1001.55
2019-06-20T00:01:35.587Z,1001.57
2019-06-20T00:02:35.587Z,1001.61
2019-06-20T00:03:35.567Z,1001.62
2019-06-20T00:04:35.559Z,1001.62
2019-06-20T00:05:35.570Z,1001.60
2019-06-20T00:06:35.538Z,1001.54
2019-06-20T00:07:35.526Z,1001.51
2019-06-20T00:08:35.528Z,1001.45
2019-06-20T00:09:35.517Z,1001.55
2019-06-20T00:10:35.497Z,1001.54
2019-06-20T00:11:35.480Z,1001.57
2019-06-20T00:12:35.471Z,1001.53
2019-06-20T00:13:35.461Z,1001.58
2019-06-20T00:14:35.451Z,1001.62
2019-06-20T00:15:35.442Z,1001.60
2019-06-20T00:16:35.426Z,1001.63
2019-06-20T00:17:35.439Z,1001.63
2019-06-20T00:18:35.413Z,1001.64
2019-06-20T00:19:35.395Z,1001.61
2019-06-20T00:20:35.382Z,1001.54
2019-06-20T00:21:35.369Z,1001.48
2019-06-20T00:22:35.365Z,1001.45
2019-06-20T00:23:35.355Z,1001.42
2019-06-20T00:24:35.345Z,1001.33
2019-06-20T00:25:35.364Z,1001.31
2019-06-20T00:26:35.322Z,1001.28
2019-06-20T00:27:35.314Z,1001.24
2019-06-20T00:28:35.297Z,1001.25
2019-06-20T00:29:35.287Z,1001.21
2019-06-20T00:30:35.279Z,1001.18
2019-06-20T00:31:35.271Z,1001.18
2019-06-20T00:32:35.255Z,1001.16
2019-06-20T00:33:35.251Z,1001.09
2019-06-20T00:34:35.235Z,1001.04
2019-06-20T00:35:35.223Z,1000.96
2019-06-20T00:36:35.219Z,1000.95
2019-06-20T00:37:35.197Z,1000.90
2019-06-20T00:38:35.193Z,1000.87
2019-06-20T00:39:35.183Z,1000.88
2019-06-20T00:40:35.191Z,1000.90
2019-06-20T00:41:35.173Z,1000.95
2019-06-20T00:42:35.151Z,1000.93
2019-06-20T00:43:35.141Z,1000.89
2019-06-20T00:44:35.164Z,1000.86
2019-06-20T00:45:35.121Z,1000.86
2019-06-20T00:46:35.111Z,1000.79
2019-06-20T00:47:35.095Z,1000.77
2019-06-20T00:48:35.089Z,1000.79
2019-06-20T00:49:35.082Z,1000.78
2019-06-20T00:50:35.069Z,1000.77
2019-06-20T00:51:35.057Z,1000.76
2019-06-20T00:52:35.047Z,1000.75
2019-06-20T00:53:35.032Z,1000.76
2019-06-20T00:54:35.036Z,1000.70
2019-06-20T00:55:35.014Z,1000.78
2019-06-20T00:56:35.001Z,1000.82
2019-06-20T00:57:34.993Z,1000.87
2019-06-20T00:58:34.987Z,1000.93
2019-06-20T00:59:34.980Z,1001.07
2019-06-20T01:00:34.957Z,1001.27
2019-06-20T01:01:34.947Z,1001.31
2019-06-20T01:02:34.934Z,1001.38
2019-06-20T01:03:34.921Z,1001.58
2019-06-20T01:04:34.917Z,1001.77
2019-06-20T01:05:34.899Z,1001.72
2019-06-20T01:06:34.911Z,1001.61
2019-06-20T01:07:34.885Z,1001.51
2019-06-20T01:08:34.871Z,1001.48
2019-06-20T01:09:34.862Z,1001.57
2019-06-20T01:10:34.868Z,1001.69
2019-06-20T01:11:34.833Z,1001.80
2019-06-20T01:12:34.826Z,1001.82
2019-06-20T01:13:34.813Z,1001.86
2019-06-20T01:14:34.811Z,1001.77
2019-06-20T01:15:34.793Z,1001.68
2019-06-20T01:16:34.795Z,1001.61
2019-06-20T01:17:34.793Z,1001.53
2019-06-20T01:18:34.772Z,1001.52
2019-06-20T01:19:34.758Z,1001.69
2019-06-20T01:20:34.743Z,1001.73
2019-06-20T01:21:34.731Z,1001.67
2019-06-20T01:22:34.717Z,1001.65
2019-06-20T01:23:34.713Z,1001.61
2019-06-20T01:24:34.705Z,1001.56
2019-06-20T01:25:34.693Z,1001.52
2019-06-20T01:26:34.680Z,1001.49
2019-06-20T01:27:34.663Z,1001.55
2019-06-20T01:28:34.653Z,1001.61
2019-06-20T01:29:34.643Z,1001.61
2019-06-20T01:30:34.631Z,1001.63
2019-06-20T01:31:34.620Z,1001.54
2019-06-20T01:32:34.606Z,1001.47
2019-06-20T01:33:34.599Z,1001.43
2019-06-20T01:34:34.611Z,1001.41
2019-06-20T01:35:34.581Z,1001.40
2019-06-20T01:36:34.570Z,1001.47
2019-06-20T01:37:34.555Z,1001.53
2019-06-20T01:38:34.541Z,1001.57
2019-06-20T01:39:34.533Z,1001.59
2019-06-20T01:40:34.525Z,1001.61
2019-06-20T01:41:34.517Z,1001.56
2019-06-20T01:42:34.497Z,1001.50
2019-06-20T01:43:49.419Z,1001.42
2019-06-20T01:44:35.473Z,1001.44
2019-06-20T01:45:34.462Z,1001.47
2019-06-20T01:46:34.453Z,1001.53
2019-06-20T01:47:34.446Z,1001.64
2019-06-20T01:48:34.437Z,1001.74
2019-06-20T01:49:34.419Z,1001.73
2019-06-20T01:50:34.413Z,1001.69
2019-06-20T01:51:34.579Z,1001.64
2019-06-20T01:52:34.407Z,1001.61
2019-06-20T01:53:34.388Z,1001.53
2019-06-20T01:54:34.374Z,1001.57
2019-06-20T01:55:34.356Z,1001.62
2019-06-20T01:56:34.350Z,1001.63
2019-06-20T01:57:34.337Z,1001.61
2019-06-20T01:58:34.324Z,1001.60
2019-06-20T01:59:34.318Z,1001.61
2019-06-20T02:00:34.311Z,1001.53
2019-06-20T02:01:34.292Z,1001.53
2019-06-20T02:02:34.326Z,1001.49
2019-06-20T02:03:34.272Z,1001.50
2019-06-20T02:04:34.261Z,1001.52
2019-06-20T02:05:34.251Z,1001.56
2019-06-20T02:06:34.235Z,1001.55
2019-06-20T02:07:34.232Z,1001.53
2019-06-20T02:08:34.212Z,1001.57
2019-06-20T02:09:34.205Z,1001.54
2019-06-20T02:10:34.194Z,1001.57
2019-06-20T02:11:34.220Z,1001.58
2019-06-20T02:12:34.177Z,1001.61
2019-06-20T02:13:34.164Z,1001.61
2019-06-20T02:14:34.157Z,1001.55
2019-06-20T02:15:34.144Z,1001.50
2019-06-20T02:16:34.157Z,1001.45
2019-06-20T02:17:34.117Z,1001.46
2019-06-20T02:18:34.121Z,1001.45
2019-06-20T02:19:34.098Z,1001.44
2019-06-20T02:20:34.084Z,1001.46
2019-06-20T02:21:34.069Z,1001.41
2019-06-20T02:22:34.063Z,1001.40
2019-06-20T02:23:34.051Z,1001.42
2019-06-20T02:24:34.044Z,1001.38
2019-06-20T02:25:34.030Z,1001.32
2019-06-20T02:26:34.040Z,1001.29
2019-06-20T02:27:34.005Z,1001.27
2019-06-20T02:28:33.998Z,1001.24
2019-06-20T02:29:33.987Z,1001.25
2019-06-20T02:30:34.066Z,1001.29
2019-06-20T02:31:34.047Z,1001.29
2019-06-20T02:32:33.957Z,1001.29
2019-06-20T02:33:33.947Z,1001.24
2019-06-20T02:34:33.942Z,1001.26
2019-06-20T02:35:33.925Z,1001.25
2019-06-20T02:36:33.908Z,1001.21
2019-06-20T02:37:33.904Z,1001.24
2019-06-20T02:38:33.890Z,1001.27
2019-06-20T02:39:33.880Z,1001.28
2019-06-20T02:40:33.867Z,1001.28
2019-06-20T02:41:33.862Z,1001.32
2019-06-20T02:42:33.849Z,1001.37
2019-06-20T02:43:33.831Z,1001.37
2019-06-20T02:44:33.822Z,1001.44
2019-06-20T02:45:33.812Z,1001.45
2019-06-20T02:46:33.801Z,1001.58
2019-06-20T02:47:33.794Z,1001.62
2019-06-20T02:48:33.783Z,1001.70
2019-06-20T02:49:33.766Z,1001.77
2019-06-20T02:50:33.757Z,1001.74
2019-06-20T02:51:33.747Z,1001.84
2019-06-20T02:52:33.759Z,1001.86
2019-06-20T02:53:33.731Z,1001.92
2019-06-20T02:54:33.719Z,1001.93
2019-06-20T02:55:33.697Z,1002.01
2019-06-20T02:56:33.693Z,1002.00
2019-06-20T02:57:33.676Z,1002.03
2019-06-20T02:58:33.680Z,1002.01
2019-06-20T02:59:33.663Z,1002.02
2019-06-20T03:00:33.714Z,1001.99
2019-06-20T03:01:33.638Z,1001.92
2019-06-20T03:02:33.629Z,1001.95
2019-06-20T03:03:33.619Z,1002.00
2019-06-20T03:04:33.611Z,1002.04
2019-06-20T03:05:33.650Z,1002.11
2019-06-20T03:06:33.591Z,1002.16
2019-06-20T03:07:33.571Z,1002.23
2019-06-20T03:08:33.561Z,1002.35
2019-06-20T03:09:33.550Z,1002.44
2019-06-20T03:10:33.543Z,1002.47
2019-06-20T03:11:33.535Z,1002.46
2019-06-20T03:12:33.518Z,1002.47
2019-06-20T03:13:33.513Z,1002.44
2019-06-20T03:14:45.144Z,1002.39
2019-06-20T03:15:34.485Z,1002.35
2019-06-20T03:16:33.489Z,1002.32
2019-06-20T03:17:33.467Z,1002.25
2019-06-20T03:18:33.474Z,1002.26
2019-06-20T03:19:33.449Z,1002.21
2019-06-20T03:20:33.444Z,1002.22
2019-06-20T03:21:33.423Z,1002.15
2019-06-20T03:22:33.418Z,1002.11
2019-06-20T03:23:33.405Z,1002.06
2019-06-20T03:24:33.393Z,1002.10
2019-06-20T03:25:33.383Z,1002.02
2019-06-20T03:26:33.375Z,1002.09
2019-06-20T03:27:33.359Z,1002.03
2019-06-20T03:28:33.355Z,1001.99
2019-06-20T03:29:33.345Z,1002.01
2019-06-20T03:30:33.338Z,1002.04
2019-06-20T03:31:33.318Z,1002.02
2019-06-20T03:32:33.312Z,1002.01
2019-06-20T03:33:33.304Z,1002.02
2019-06-20T03:34:33.295Z,1001.95
2019-06-20T03:35:33.278Z,1001.93
2019-06-20T03:36:33.276Z,1001.95
2019-06-20T03:37:33.256Z,1001.91
2019-06-20T03:38:33.242Z,1001.96
2019-06-20T03:39:33.233Z,1001.91
2019-06-20T03:40:33.223Z,1001.90
2019-06-20T03:41:33.212Z,1001.87
2019-06-20T03:42:33.203Z,1001.88
2019-06-20T03:43:33.195Z,1001.90
2019-06-20T03:44:33.177Z,1001.93
2019-06-20T03:45:33.165Z,1002.03
2019-06-20T03:46:33.160Z,1002.08
2019-06-20T03:47:33.145Z,1002.12
2019-06-20T03:48:33.137Z,1002.09
2019-06-20T03:49:33.127Z,1002.12
2019-06-20T03:50:33.122Z,1002.07
2019-06-20T03:51:33.125Z,1002.08
2019-06-20T03:52:33.097Z,1002.10
2019-06-20T03:53:33.085Z,1002.15
2019-06-20T03:54:33.076Z,1002.10
2019-06-20T03:55:33.059Z,1002.14
2019-06-20T03:56:33.047Z,1002.12
2019-06-20T03:57:33.046Z,1002.11
2019-06-20T03:58:33.066Z,1002.04
2019-06-20T03:59:33.024Z,1001.94
2019-06-20T04:00:33.005Z,1001.88
2019-06-20T04:01:32.997Z,1001.82
2019-06-20T04:02:32.989Z,1001.77
2019-06-20T04:03:32.978Z,1001.78
2019-06-20T04:04:32.967Z,1001.76
2019-06-20T04:05:32.955Z,1001.84
2019-06-20T04:06:32.947Z,1001.83
2019-06-20T04:07:32.941Z,1001.86
2019-06-20T04:08:32.924Z,1001.89
2019-06-20T04:09:32.911Z,1001.86
2019-06-20T04:10:32.900Z,1001.82
2019-06-20T04:11:32.888Z,1001.79
2019-06-20T04:12:32.876Z,1001.79
2019-06-20T04:13:32.872Z,1001.74
2019-06-20T04:14:32.857Z,1001.82
2019-06-20T04:15:32.843Z,1001.85
2019-06-20T04:16:32.839Z,1001.82
2019-06-20T04:17:32.833Z,1001.85
2019-06-20T04:18:32.818Z,1001.82
2019-06-20T04:19:32.814Z,1001.84
2019-06-20T04:20:32.797Z,1001.84
2019-06-20T04:21:32.787Z,1001.89
2019-06-20T04:22:32.864Z,1001.87
2019-06-20T04:23:32.761Z,1001.83
2019-06-20T04:24:32.767Z,1001.86
2019-06-20T04:25:32.740Z,1001.84
2019-06-20T04:26:32.738Z,1001.82
2019-06-20T04:27:32.724Z,1001.81
2019-06-20T04:28:32.711Z,1001.82
2019-06-20T04:29:35.795Z,1001.86
2019-06-20T04:30:32.689Z,1001.93
2019-06-20T04:31:32.675Z,1001.97
2019-06-20T04:32:32.667Z,1002.01
2019-06-20T04:33:32.651Z,1001.99
2019-06-20T04:34:32.646Z,1002.02
2019-06-20T04:35:32.633Z,1002.04
2019-06-20T04:36:32.617Z,1002.04
2019-06-20T04:37:32.620Z,1002.08
2019-06-20T04:38:32.602Z,1002.10
2019-06-20T04:39:32.587Z,1002.15
2019-06-20T04:40:32.576Z,1002.20
2019-06-20T04:41:32.565Z,1002.26
2019-06-20T04:42:32.557Z,1002.22
2019-06-20T04:43:32.541Z,1002.26
2019-06-20T04:44:32.536Z,1002.27
2019-06-20T04:45:35.472Z,1002.28
2019-06-20T04:46:32.531Z,1002.27
2019-06-20T04:47:32.498Z,1002.28
2019-06-20T04:48:32.490Z,1002.29
2019-06-20T04:49:32.489Z,1002.25
2019-06-20T04:50:32.468Z,1002.21
2019-06-20T04:51:32.452Z,1002.24
2019-06-20T04:52:32.453Z,1002.23
2019-06-20T04:53:32.439Z,1002.25
2019-06-20T04:54:32.427Z,1002.21
2019-06-20T04:55:32.411Z,1002.19
2019-06-20T04:56:32.401Z,1002.19
2019-06-20T04:57:32.408Z,1002.13
2019-06-20T04:58:32.382Z,1002.14
2019-06-20T04:59:32.371Z,1002.08
2019-06-20T05:00:32.369Z,1002.14
2019-06-20T05:01:32.351Z,1002.12
2019-06-20T05:02:32.337Z,1002.20
2019-06-20T05:03:32.343Z,1002.23
2019-06-20T05:04:32.314Z,1002.28
2019-06-20T05:05:32.301Z,1002.31
2019-06-20T05:06:32.293Z,1002.31
2019-06-20T05:07:32.283Z,1002.34
2019-06-20T05:08:32.269Z,1002.34
2019-06-20T05:09:32.277Z,1002.32
2019-06-20T05:10:32.248Z,1002.32
2019-06-20T05:11:32.242Z,1002.31
2019-06-20T05:12:32.227Z,1002.35
2019-06-20T05:13:32.224Z,1002.37
2019-06-20T05:14:32.205Z,1002.41
2019-06-20T05:15:32.191Z,1002.38
2019-06-20T05:16:32.193Z,1002.39
2019-06-20T05:17:32.173Z,1002.33
2019-06-20T05:18:32.156Z,1002.33
2019-06-20T05:19:32.149Z,1002.36
2019-06-20T05:20:32.145Z,1002.25
2019-06-20T05:21:32.125Z,1002.26
2019-06-20T05:22:32.118Z,1002.28
2019-06-20T05:23:32.119Z,1002.25
2019-06-20T05:24:32.098Z,1002.22
2019-06-20T05:25:32.090Z,1002.24
2019-06-20T05:26:32.076Z,1002.21
2019-06-20T05:27:32.067Z,1002.15
2019-06-20T05:28:32.054Z,1002.08
2019-06-20T05:29:32.056Z,1002.03
2019-06-20T05:30:32.029Z,1002.08
2019-06-20T05:31:32.025Z,1002.04
2019-06-20T05:32:32.013Z,1001.99
2019-06-20T05:33:32.010Z,1001.95
2019-06-20T05:34:31.997Z,1001.93
2019-06-20T05:35:31.983Z,1001.78
2019-06-20T05:36:31.968Z,1001.78
2019-06-20T05:37:31.957Z,1001.78
2019-06-20T05:38:31.951Z,1001.73
2019-06-20T05:39:31.956Z,1001.72
2019-06-20T05:40:31.927Z,1001.67
2019-06-20T05:41:31.922Z,1001.69
2019-06-20T05:42:31.905Z,1001.68
2019-06-20T05:43:31.893Z,1001.69
2019-06-20T05:44:31.883Z,1001.70
2019-06-20T05:45:31.930Z,1001.72
2019-06-20T05:46:31.856Z,1001.77
2019-06-20T05:47:31.850Z,1001.91
2019-06-20T05:48:31.843Z,1002.09
2019-06-20T05:49:31.829Z,1002.27
2019-06-20T05:50:31.819Z,1002.35
2019-06-20T05:51:31.806Z,1002.46
2019-06-20T05:52:31.821Z,1002.70
2019-06-20T05:53:31.792Z,1002.70
2019-06-20T05:54:31.774Z,1002.50
2019-06-20T05:55:31.771Z,1002.40
2019-06-20T05:56:31.751Z,1002.39
2019-06-20T05:57:31.743Z,1002.48
2019-06-20T05:58:31.725Z,1002.62
2019-06-20T05:59:31.720Z,1002.60
2019-06-20T06:00:31.709Z,1002.47
2019-06-20T06:01:31.701Z,1002.47
2019-06-20T06:02:31.727Z,1002.50
2019-06-20T06:03:31.683Z,1002.63
2019-06-20T06:04:31.670Z,1002.67
2019-06-20T06:05:31.655Z,1002.65
2019-06-20T06:06:31.641Z,1002.64
2019-06-20T06:07:31.639Z,1002.67
2019-06-20T06:08:31.617Z,1002.72
2019-06-20T06:09:31.616Z,1002.90
2019-06-20T06:10:31.604Z,1002.95
2019-06-20T06:11:31.592Z,1003.06
2019-06-20T06:12:31.587Z,1003.08
2019-06-20T06:13:31.575Z,1003.13
2019-06-20T06:14:31.670Z,1003.12
2019-06-20T06:15:31.560Z,1003.22
2019-06-20T06:16:31.539Z,1003.27
2019-06-20T06:17:31.529Z,1003.42
2019-06-20T06:18:31.531Z,1003.77
2019-06-20T06:19:31.508Z,1004.17
2019-06-20T06:20:31.491Z,1004.39
2019-06-20T06:21:31.487Z,1004.21
2019-06-20T06:22:31.478Z,1004.12
2019-06-20T06:23:31.463Z,1004.48
2019-06-20T06:24:31.451Z,1004.57
2019-06-20T06:25:31.458Z,1004.48
2019-06-20T06:26:31.427Z,1004.38
2019-06-20T06:27:31.446Z,1004.35
2019-06-20T06:28:31.412Z,1004.33
2019-06-20T06:29:31.399Z,1004.28
2019-06-20T06:30:31.385Z,1004.43
2019-06-20T06:31:31.367Z,1004.56
2019-06-20T06:32:40.124Z,1004.52
2019-06-20T06:33:32.362Z,1004.35
2019-06-20T06:34:31.347Z,1004.29
2019-06-20T06:35:31.334Z,1004.35
2019-06-20T06:36:31.317Z,1004.39
2019-06-20T06:37:31.305Z,1004.44
2019-06-20T06:38:31.309Z,1004.49
2019-06-20T06:39:31.287Z,1004.31
2019-06-20T06:40:31.284Z,1004.25
2019-06-20T06:41:31.266Z,1004.19
2019-06-20T06:42:31.252Z,1004.29
2019-06-20T06:43:31.246Z,1004.32
2019-06-20T06:44:31.898Z,1004.31
2019-06-20T06:45:31.222Z,1004.33
2019-06-20T06:46:43.570Z,1004.33
2019-06-20T06:47:32.194Z,1004.31
2019-06-20T06:48:31.203Z,1004.24
2019-06-20T06:49:31.179Z,1004.24
2019-06-20T06:50:31.182Z,1004.22
2019-06-20T06:51:31.179Z,1004.24
2019-06-20T06:52:31.143Z,1004.26
2019-06-20T06:53:31.142Z,1004.23
2019-06-20T06:54:31.131Z,1004.23
2019-06-20T06:55:31.122Z,1004.15
2019-06-20T06:56:31.117Z,1004.20
2019-06-20T06:57:31.099Z,1004.15
2019-06-20T06:58:31.085Z,1004.19
2019-06-20T06:59:31.077Z,1004.20
2019-06-20T07:00:31.059Z,1004.20
2019-06-20T07:01:31.053Z,1004.21
2019-06-20T07:02:31.079Z,1004.12
2019-06-20T07:03:31.034Z,1004.16
2019-06-20T07:04:31.024Z,1004.16
2019-06-20T07:05:31.007Z,1004.17
2019-06-20T07:06:30.996Z,1004.13
2019-06-20T07:07:30.985Z,1004.14
2019-06-20T07:08:30.976Z,1004.12
2019-06-20T07:09:30.968Z,1004.04
2019-06-20T07:10:30.960Z,1004.03
2019-06-20T07:11:30.958Z,1003.95
2019-06-20T07:12:30.936Z,1003.92
2019-06-20T07:13:30.923Z,1003.88
2019-06-20T07:14:30.954Z,1003.85
2019-06-20T07:15:30.900Z,1003.85
2019-06-20T07:16:30.947Z,1003.85
2019-06-20T07:17:30.885Z,1003.81
2019-06-20T07:18:30.876Z,1003.78
2019-06-20T07:19:30.861Z,1003.79
2019-06-20T07:20:30.849Z,1003.72
2019-06-20T07:21:30.845Z,1003.70
2019-06-20T07:22:30.833Z,1003.76
2019-06-20T07:23:30.814Z,1003.84
2019-06-20T07:24:30.809Z,1003.90
2019-06-20T07:25:30.791Z,1003.98
2019-06-20T07:26:30.788Z,1004.03
2019-06-20T07:27:30.793Z,1004.06
2019-06-20T07:28:30.773Z,1004.03
2019-06-20T07:29:30.760Z,1004.01
2019-06-20T07:30:30.744Z,1004.01
2019-06-20T07:31:30.733Z,1003.98
2019-06-20T07:32:30.719Z,1004.01
2019-06-20T07:33:30.717Z,1003.96
2019-06-20T07:34:30.703Z,1003.91
2019-06-20T07:35:30.705Z,1003.88
2019-06-20T07:36:30.678Z,1003.84
2019-06-20T07:37:30.670Z,1003.83
2019-06-20T07:38:30.659Z,1003.78
2019-06-20T07:39:30.651Z,1003.74
2019-06-20T07:40:30.647Z,1003.69
2019-06-20T07:41:30.629Z,1003.71
2019-06-20T07:42:30.622Z,1003.72
2019-06-20T07:43:30.599Z,1003.77
2019-06-20T07:44:30.591Z,1003.78
2019-06-20T07:45:30.578Z,1003.86
2019-06-20T07:46:30.576Z,1003.90
2019-06-20T07:47:30.560Z,1003.89
2019-06-20T07:48:30.546Z,1003.92
2019-06-20T07:49:30.537Z,1003.85
2019-06-20T07:50:30.538Z,1003.87
2019-06-20T07:51:30.515Z,1003.86
2019-06-20T07:52:30.512Z,1003.89
2019-06-20T07:53:30.493Z,1003.91
2019-06-20T07:54:30.478Z,1003.89
2019-06-20T07:55:30.656Z,1003.90
2019-06-20T07:56:30.459Z,1003.87
2019-06-20T07:57:30.450Z,1003.85
2019-06-20T07:58:30.495Z,1003.84
2019-06-20T07:59:30.423Z,1003.81
2019-06-20T08:00:30.409Z,1003.80
2019-06-20T08:01:30.404Z,1003.73
2019-06-20T08:02:30.397Z,1003.77
2019-06-20T08:03:30.384Z,1003.76
2019-06-20T08:04:30.369Z,1003.76
2019-06-20T08:05:30.371Z,1003.77
2019-06-20T08:06:30.349Z,1003.74
2019-06-20T08:07:30.352Z,1003.69
2019-06-20T08:08:30.418Z,1003.69
2019-06-20T08:09:44.490Z,1003.66
2019-06-20T08:10:31.313Z,1003.72
2019-06-20T08:11:30.298Z,1003.66
2019-06-20T08:12:30.287Z,1003.70
2019-06-20T08:13:30.279Z,1003.68
2019-06-20T08:14:30.264Z,1003.69
2019-06-20T08:15:30.260Z,1003.71
2019-06-20T08:16:30.241Z,1003.71
2019-06-20T08:17:35.421Z,1003.71
2019-06-20T08:18:31.223Z,1003.65
2019-06-20T08:19:30.210Z,1003.68
2019-06-20T08:20:30.246Z,1003.68
2019-06-20T08:21:30.183Z,1003.66
2019-06-20T08:22:30.181Z,1003.63
2019-06-20T08:23:30.161Z,1003.60
2019-06-20T08:24:30.157Z,1003.57
2019-06-20T08:25:30.149Z,1003.56
2019-06-20T08:26:30.149Z,1003.57
2019-06-20T08:27:30.121Z,1003.55
2019-06-20T08:28:30.110Z,1003.60
2019-06-20T08:29:30.116Z,1003.66
2019-06-20T08:30:30.111Z,1003.75
2019-06-20T08:31:30.077Z,1003.71
2019-06-20T08:32:30.097Z,1003.72
2019-06-20T08:33:30.056Z,1003.65
2019-06-20T08:34:30.046Z,1003.59
2019-06-20T08:35:30.072Z,1003.59
2019-06-20T08:36:30.128Z,1003.66
2019-06-20T08:37:30.019Z,1003.75
2019-06-20T08:38:30.014Z,1003.83
2019-06-20T08:39:30.008Z,1003.83
2019-06-20T08:40:29.988Z,1003.88
2019-06-20T08:41:30.250Z,1003.81
2019-06-20T08:42:29.965Z,1003.84
2019-06-20T08:43:29.946Z,1003.83
2019-06-20T08:44:29.938Z,1003.84
2019-06-20T08:45:29.925Z,1003.81
2019-06-20T08:46:29.921Z,1003.80
2019-06-20T08:47:29.901Z,1003.88
2019-06-20T08:48:29.892Z,1003.88
2019-06-20T08:49:29.901Z,1003.90
2019-06-20T08:50:29.872Z,1003.91
2019-06-20T08:51:29.863Z,1003.93
2019-06-20T08:52:29.849Z,1003.94
2019-06-20T08:53:29.853Z,1003.94
2019-06-20T08:54:29.828Z,1004.00
2019-06-20T08:55:29.828Z,1003.95
2019-06-20T08:56:29.812Z,1003.99
2019-06-20T08:57:29.801Z,1003.94
2019-06-20T08:58:29.791Z,1003.97
2019-06-20T08:59:29.846Z,1003.90
2019-06-20T09:00:29.772Z,1003.95
2019-06-20T09:01:29.906Z,1003.99
2019-06-20T09:02:29.753Z,1004.01
2019-06-20T09:03:29.740Z,1004.08
2019-06-20T09:04:29.719Z,1004.04
2019-06-20T09:05:30.819Z,1004.08
2019-06-20T09:06:29.698Z,1004.11
2019-06-20T09:07:29.686Z,1004.09
2019-06-20T09:08:29.684Z,1004.08
2019-06-20T09:09:29.671Z,1004.06
2019-06-20T09:10:29.663Z,1004.04
2019-06-20T09:11:29.653Z,1004.06
2019-06-20T09:12:29.645Z,1003.99
2019-06-20T09:13:29.626Z,1004.06
2019-06-20T09:14:29.618Z,1004.06
2019-06-20T09:15:29.621Z,1004.04
2019-06-20T09:16:29.598Z,1004.02
2019-06-20T09:17:29.598Z,1004.05
2019-06-20T09:18:29.575Z,1004.00
2019-06-20T09:19:29.566Z,1003.99
2019-06-20T09:20:29.557Z,1003.99
2019-06-20T09:21:29.537Z,1003.96
2019-06-20T09:22:29.533Z,1003.89
2019-06-20T09:23:29.558Z,1003.94
2019-06-20T09:24:29.517Z,1003.92
2019-06-20T09:25:29.522Z,1003.96
2019-06-20T09:26:29.481Z,1003.93
2019-06-20T09:27:29.484Z,1003.99
2019-06-20T09:28:29.467Z,1004.01
2019-06-20T09:29:41.406Z,1004.03
2019-06-20T09:30:30.456Z,1004.06
2019-06-20T09:31:29.423Z,1004.12
2019-06-20T09:32:29.424Z,1004.14
2019-06-20T09:33:29.411Z,1004.17
2019-06-20T09:34:29.417Z,1004.20
2019-06-20T09:35:29.392Z,1004.24
2019-06-20T09:36:29.371Z,1004.27
2019-06-20T09:37:29.365Z,1004.20
2019-06-20T09:38:29.359Z,1004.23
2019-06-20T09:39:29.353Z,1004.25
2019-06-20T09:40:29.328Z,1004.25
2019-06-20T09:41:29.359Z,1004.34
2019-06-20T09:42:29.310Z,1004.31
2019-06-20T09:43:29.300Z,1004.30
2019-06-20T09:44:29.290Z,1004.32
2019-06-20T09:45:29.278Z,1004.29
2019-06-20T09:46:29.273Z,1004.32
2019-06-20T09:47:29.256Z,1004.36
2019-06-20T09:48:29.245Z,1004.39
2019-06-20T09:49:29.237Z,1004.39
2019-06-20T09:50:29.226Z,1004.40
2019-06-20T09:51:29.217Z,1004.37
2019-06-20T09:52:29.205Z,1004.35
2019-06-20T09:53:29.197Z,1004.37
2019-06-20T09:54:29.182Z,1004.42
2019-06-20T09:55:29.176Z,1004.43
2019-06-20T09:56:29.163Z,1004.45
2019-06-20T09:57:29.158Z,1004.42
2019-06-20T09:58:29.148Z,1004.42
2019-06-20T09:59:29.152Z,1004.41
2019-06-20T10:00:29.123Z,1004.43
2019-06-20T10:01:29.142Z,1004.46
2019-06-20T10:02:29.101Z,1004.40
2019-06-20T10:03:29.097Z,1004.39
2019-06-20T10:04:29.078Z,1004.44
2019-06-20T10:05:29.066Z,1004.48
2019-06-20T10:06:29.065Z,1004.48
2019-06-20T10:07:29.045Z,1004.41
2019-06-20T10:08:29.038Z,1004.43
2019-06-20T10:09:29.034Z,1004.41
2019-06-20T10:10:29.015Z,1004.48
2019-06-20T10:11:28.997Z,1004.43
2019-06-20T10:12:28.996Z,1004.41
2019-06-20T10:13:32.399Z,1004.51
2019-06-20T10:14:28.989Z,1004.48
2019-06-20T10:15:28.958Z,1004.53
2019-06-20T10:16:42.441Z,1004.52
2019-06-20T10:17:29.936Z,1004.57
2019-06-20T10:18:28.939Z,1004.60
2019-06-20T10:19:28.918Z,1004.59
2019-06-20T10:20:28.911Z,1004.58
2019-06-20T10:21:28.905Z,1004.56
2019-06-20T10:22:28.885Z,1004.51
2019-06-20T10:23:28.880Z,1004.55
2019-06-20T10:24:28.868Z,1004.60
2019-06-20T10:25:28.854Z,1004.58
2019-06-20T10:26:28.846Z,1004.56
2019-06-20T10:27:28.833Z,1004.60
2019-06-20T10:28:28.837Z,1004.56
2019-06-20T10:29:28.815Z,1004.58
2019-06-20T10:30:28.806Z,1004.56
2019-06-20T10:31:28.796Z,1004.56
2019-06-20T10:32:28.782Z,1004.57
2019-06-20T10:33:28.792Z,1004.63
2019-06-20T10:34:31.121Z,1004.61
2019-06-20T10:35:28.748Z,1004.55
2019-06-20T10:36:28.742Z,1004.59
2019-06-20T10:37:28.746Z,1004.57
2019-06-20T10:38:28.718Z,1004.57
2019-06-20T10:39:28.707Z,1004.57
2019-06-20T10:40:28.696Z,1004.62
2019-06-20T10:41:28.687Z,1004.57
2019-06-20T10:42:28.684Z,1004.55
2019-06-20T10:43:28.663Z,1004.55
2019-06-20T10:44:28.649Z,1004.65
2019-06-20T10:45:28.641Z,1004.62
2019-06-20T10:46:28.634Z,1004.68
2019-06-20T10:47:33.712Z,1004.67
2019-06-20T10:48:29.613Z,1004.70
2019-06-20T10:49:28.595Z,1004.71
2019-06-20T10:50:28.590Z,1004.59
2019-06-20T10:51:28.582Z,1004.63
2019-06-20T10:52:28.572Z,1004.62
2019-06-20T10:53:28.560Z,1004.66
2019-06-20T10:54:28.545Z,1004.64
2019-06-20T10:55:28.532Z,1004.65
2019-06-20T10:56:28.527Z,1004.59
2019-06-20T10:57:28.516Z,1004.61
2019-06-20T10:58:28.504Z,1004.59
2019-06-20T10:59:28.491Z,1004.63
2019-06-20T11:00:32.023Z,1004.62
2019-06-20T11:01:28.479Z,1004.57
2019-06-20T11:02:28.486Z,1004.63
2019-06-20T11:03:28.452Z,1004.58
2019-06-20T11:04:28.439Z,1004.57
2019-06-20T11:05:28.431Z,1004.59
2019-06-20T11:06:28.416Z,1004.55
2019-06-20T11:07:28.421Z,1004.61
2019-06-20T11:08:28.396Z,1004.61
2019-06-20T11:09:28.385Z,1004.60
2019-06-20T11:10:28.374Z,1004.58
2019-06-20T11:11:28.370Z,1004.61
2019-06-20T11:12:39.987Z,1004.54
2019-06-20T11:13:29.349Z,1004.56
2019-06-20T11:14:28.330Z,1004.57
2019-06-20T11:15:28.334Z,1004.58
2019-06-20T11:16:28.320Z,1004.53
2019-06-20T11:17:28.296Z,1004.56
2019-06-20T11:18:28.294Z,1004.62
2019-06-20T11:19:28.282Z,1004.59
2019-06-20T11:20:28.272Z,1004.54
2019-06-20T11:21:28.254Z,1004.60
2019-06-20T11:22:28.253Z,1004.57
2019-06-20T11:23:28.236Z,1004.59
2019-06-20T11:24:28.226Z,1004.63
2019-06-20T11:25:28.215Z,1004.61
2019-06-20T11:26:28.205Z,1004.64
2019-06-20T11:27:28.198Z,1004.60
2019-06-20T11:28:28.187Z,1004.64
2019-06-20T11:29:28.410Z,1004.67
2019-06-20T11:30:28.177Z,1004.71
2019-06-20T11:31:28.153Z,1004.66
2019-06-20T11:32:28.176Z,1004.67
2019-06-20T11:33:28.179Z,1004.65
2019-06-20T11:34:28.136Z,1004.57
2019-06-20T11:35:28.167Z,1004.57
2019-06-20T11:36:28.135Z,1004.58
2019-06-20T11:37:28.091Z,1004.63
2019-06-20T11:38:28.083Z,1004.59
2019-06-20T11:39:28.068Z,1004.63
2019-06-20T11:40:28.058Z,1004.63
2019-06-20T11:41:28.048Z,1004.61
2019-06-20T11:42:28.040Z,1004.57
2019-06-20T11:43:28.038Z,1004.58
2019-06-20T11:44:28.050Z,1004.60
2019-06-20T11:45:28.026Z,1004.64
2019-06-20T11:46:28.055Z,1004.63
2019-06-20T11:47:27.988Z,1004.65
2019-06-20T11:48:27.981Z,1004.61
2019-06-20T11:49:27.965Z,1004.66
2019-06-20T11:50:27.955Z,1004.68
2019-06-20T11:51:27.948Z,1004.67
2019-06-20T11:52:27.943Z,1004.66
2019-06-20T11:53:27.929Z,1004.73
2019-06-20T11:54:27.917Z,1004.77
2019-06-20T11:55:27.910Z,1004.72
2019-06-20T11:56:27.895Z,1004.75
2019-06-20T11:57:27.877Z,1004.73
2019-06-20T11:58:27.876Z,1004.71
2019-06-20T11:59:27.890Z,1004.71
2019-06-20T12:00:27.865Z,1004.69
2019-06-20T12:01:32.963Z,1004.68
2019-06-20T12:02:28.833Z,1004.69
2019-06-20T12:03:27.820Z,1004.70
2019-06-20T12:04:27.812Z,1004.68
2019-06-20T12:05:27.799Z,1004.65